createdAt,value
2018-05-01T00:02:25.627Z,12.90
2018-05-01T00:04:53.211Z,13.00
2018-05-01T00:07:20.789Z,13.10
2018-05-01T00:09:48.456Z,13.20
2018-05-01T00:12:16.096Z,13.20
2018-05-01T00:14:43.680Z,13.30
2018-05-01T00:17:11.316Z,13.30
2018-05-01T00:19:38.951Z,13.30
2018-05-01T00:22:06.612Z,13.40
2018-05-01T00:24:34.232Z,13.30
2018-05-01T00:27:02.519Z,13.30
2018-05-01T00:29:30.116Z,13.20
2018-05-01T00:31:57.773Z,13.10
2018-05-01T00:34:25.414Z,13.10
2018-05-01T00:36:53.764Z,13.00
2018-05-01T00:39:21.430Z,12.90
2018-05-01T00:41:49.031Z,12.90
2018-05-01T00:44:16.612Z,12.90
2018-05-01T00:46:44.285Z,12.90
2018-05-01T00:49:11.904Z,12.90
2018-05-01T00:51:40.180Z,12.90
2018-05-01T00:54:07.837Z,12.90
2018-05-01T00:56:36.272Z,13.00
2018-05-01T00:59:03.986Z,13.00
2018-05-01T01:01:31.687Z,13.00
2018-05-01T01:03:59.348Z,13.10
2018-05-01T01:06:27.148Z,13.10
2018-05-01T01:08:55.546Z,13.30
2018-05-01T01:11:23.209Z,13.20
2018-05-01T01:13:51.610Z,13.30
2018-05-01T01:16:19.249Z,13.30
2018-05-01T01:18:46.885Z,13.40
2018-05-01T01:21:14.480Z,13.40
2018-05-01T01:23:42.173Z,13.50
2018-05-01T01:26:09.827Z,13.50
2018-05-01T01:28:37.458Z,13.60
2018-05-01T01:31:05.102Z,13.60
2018-05-01T01:33:33.515Z,13.90
2018-05-01T01:36:00.648Z,13.80
2018-05-01T01:38:27.805Z,13.90
2018-05-01T01:40:54.965Z,13.90
2018-05-01T01:43:22.162Z,14.00
2018-05-01T01:45:49.297Z,14.00
2018-05-01T01:48:16.659Z,14.00
2018-05-01T01:50:45.304Z,13.80
2018-05-01T01:53:12.497Z,13.80
2018-05-01T01:55:39.652Z,13.80
2018-05-01T01:58:07.550Z,13.80
2018-05-01T02:00:35.020Z,13.70
2018-05-01T02:03:02.185Z,13.80
2018-05-01T02:05:29.353Z,13.80
2018-05-01T02:07:56.506Z,13.70
2018-05-01T02:10:23.651Z,13.70
2018-05-01T02:12:50.826Z,13.70
2018-05-01T02:15:19.354Z,13.70
2018-05-01T02:17:46.550Z,13.70
2018-05-01T02:20:14.517Z,13.60
2018-05-01T02:22:42.404Z,13.60
2018-05-01T02:25:10.283Z,13.50
2018-05-01T02:27:38.085Z,13.50
2018-05-01T02:30:05.396Z,13.50
2018-05-01T02:32:32.496Z,13.50
2018-05-01T02:34:59.636Z,13.40
2018-05-01T02:37:26.806Z,13.30
2018-05-01T02:39:54.917Z,13.20
2018-05-01T02:42:22.005Z,13.20
2018-05-01T02:44:49.132Z,13.20
2018-05-01T02:47:16.273Z,13.20
2018-05-01T02:49:43.413Z,13.30
2018-05-01T02:52:10.610Z,13.30
2018-05-01T02:54:37.713Z,13.30
2018-05-01T02:57:04.875Z,13.30
2018-05-01T02:59:32.629Z,13.30
2018-05-01T03:01:59.756Z,13.30
2018-05-01T03:04:27.695Z,13.40
2018-05-01T03:06:54.870Z,13.40
2018-05-01T03:09:22.744Z,13.40
2018-05-01T03:11:50.672Z,13.50
2018-05-01T03:14:17.889Z,13.40
2018-05-01T03:16:45.669Z,13.50
2018-05-01T03:19:12.789Z,13.40
2018-05-01T03:21:39.961Z,13.40
2018-05-01T03:24:07.125Z,13.40
2018-05-01T03:26:34.214Z,13.40
2018-05-01T03:29:02.121Z,13.40
2018-05-01T03:31:29.277Z,13.40
2018-05-01T03:33:56.366Z,13.40
2018-05-01T03:36:24.307Z,13.40
2018-05-01T03:38:51.448Z,13.40
2018-05-01T03:41:18.536Z,13.40
2018-05-01T03:43:46.471Z,13.30
2018-05-01T03:46:13.948Z,13.30
2018-05-01T03:48:41.041Z,13.20
2018-05-01T03:51:08.181Z,13.20
2018-05-01T03:53:35.341Z,13.20
2018-05-01T03:56:02.482Z,13.30
2018-05-01T03:58:29.679Z,13.30
2018-05-01T04:00:56.819Z,13.30
2018-05-01T04:03:23.950Z,13.40
2018-05-01T04:05:51.133Z,13.40
2018-05-01T04:08:18.253Z,13.50
2018-05-01T04:10:45.355Z,13.50
2018-05-01T04:13:13.312Z,13.40
2018-05-01T04:15:41.175Z,13.40
2018-05-01T04:18:08.254Z,13.30
2018-05-01T04:20:35.429Z,13.30
2018-05-01T04:23:02.565Z,13.30
2018-05-01T04:25:29.713Z,13.20
2018-05-01T04:27:56.885Z,13.20
2018-05-01T04:30:24.009Z,13.20
2018-05-01T04:32:51.111Z,13.20
2018-05-01T04:35:18.267Z,13.20
2018-05-01T04:37:46.165Z,13.20
2018-05-01T04:40:13.344Z,13.20
2018-05-01T04:42:40.472Z,13.20
2018-05-01T04:45:07.611Z,13.20
2018-05-01T04:47:34.753Z,13.20
2018-05-01T04:50:01.878Z,13.20
2018-05-01T04:52:29.791Z,13.20
2018-05-01T04:54:57.768Z,13.20
2018-05-01T04:57:24.933Z,13.20
2018-05-01T04:59:52.031Z,13.20
2018-05-01T05:02:19.913Z,13.20
2018-05-01T05:04:47.037Z,13.20
2018-05-01T05:07:14.162Z,13.20
2018-05-01T05:09:41.624Z,13.30
2018-05-01T05:12:08.839Z,13.30
2018-05-01T05:14:35.967Z,13.30
2018-05-01T05:17:03.084Z,13.30
2018-05-01T05:19:31.012Z,13.20
2018-05-01T05:21:58.148Z,13.20
2018-05-01T05:24:25.263Z,13.20
2018-05-01T05:26:53.196Z,13.20
2018-05-01T05:29:20.348Z,13.20
2018-05-01T05:31:48.226Z,13.40
2018-05-01T05:34:16.101Z,13.40
2018-05-01T05:36:44.091Z,13.40
2018-05-01T05:39:11.245Z,13.40
2018-05-01T05:41:38.385Z,13.40
2018-05-01T05:44:05.544Z,13.50
2018-05-01T05:46:32.665Z,13.40
2018-05-01T05:49:00.565Z,13.50
2018-05-01T05:51:27.682Z,13.50
2018-05-01T05:53:55.575Z,13.60
2018-05-01T05:56:22.689Z,13.60
2018-05-01T05:58:51.642Z,13.70
2018-05-01T06:01:18.905Z,13.70
2018-05-01T06:03:46.037Z,13.80
2018-05-01T06:06:13.189Z,13.80
2018-05-01T06:08:40.368Z,13.70
2018-05-01T06:11:07.464Z,13.70
2018-05-01T06:13:34.724Z,13.80
2018-05-01T06:16:01.833Z,13.90
2018-05-01T06:18:29.745Z,14.10
2018-05-01T06:20:56.901Z,14.00
2018-05-01T06:23:24.064Z,14.10
2018-05-01T06:25:51.212Z,14.20
2018-05-01T06:28:18.357Z,14.10
2018-05-01T06:30:45.470Z,14.10
2018-05-01T06:33:12.623Z,14.20
2018-05-01T06:35:39.711Z,14.20
2018-05-01T06:38:07.184Z,14.20
2018-05-01T06:40:34.305Z,14.10
2018-05-01T06:43:01.485Z,14.20
2018-05-01T06:45:29.384Z,14.20
2018-05-01T06:47:56.568Z,14.20
2018-05-01T06:50:24.069Z,14.20
2018-05-01T06:52:52.001Z,14.10
2018-05-01T06:55:19.885Z,14.10
2018-05-01T06:57:48.422Z,14.20
2018-05-01T07:00:15.494Z,14.20
2018-05-01T07:02:42.620Z,14.30
2018-05-01T07:05:09.795Z,14.20
2018-05-01T07:07:36.903Z,14.20
2018-05-01T07:10:04.124Z,14.30
2018-05-01T07:12:32.907Z,14.50
2018-05-01T07:15:04.515Z,14.50
2018-05-01T07:17:31.812Z,14.50
2018-05-01T07:19:59.711Z,14.50
2018-05-01T07:22:26.878Z,14.40
2018-05-01T07:24:54.676Z,14.60
2018-05-01T07:27:22.480Z,14.80
2018-05-01T07:29:49.605Z,14.90
2018-05-01T07:32:17.502Z,14.90
2018-05-01T07:34:44.953Z,14.90
2018-05-01T07:37:12.100Z,15.10
2018-05-01T07:39:39.190Z,15.00
2018-05-01T07:42:06.331Z,14.80
2018-05-01T07:44:33.511Z,14.80
2018-05-01T07:47:00.644Z,14.50
2018-05-01T07:49:27.787Z,14.40
2018-05-01T07:51:54.890Z,14.30
2018-05-01T07:54:23.749Z,14.40
2018-05-01T07:56:51.872Z,14.40
2018-05-01T07:59:19.439Z,14.40
2018-05-01T08:01:46.573Z,14.60
2018-05-01T08:04:13.745Z,14.60
2018-05-01T08:06:40.877Z,14.40
2018-05-01T08:09:07.985Z,14.30
2018-05-01T08:11:35.911Z,14.40
2018-05-01T08:14:03.440Z,14.40
2018-05-01T08:16:30.629Z,14.50
2018-05-01T08:18:57.751Z,14.50
2018-05-01T08:21:24.883Z,14.80
2018-05-01T08:23:52.030Z,14.60
2018-05-01T08:26:19.973Z,14.50
2018-05-01T08:28:47.881Z,14.60
2018-05-01T08:31:15.026Z,14.60
2018-05-01T08:33:42.230Z,14.50
2018-05-01T08:36:09.592Z,14.70
2018-05-01T08:38:37.482Z,14.60
2018-05-01T08:41:04.615Z,14.60
2018-05-01T08:43:32.653Z,14.70
2018-05-01T08:46:00.127Z,14.70
2018-05-01T08:48:27.228Z,14.70
2018-05-01T08:50:54.413Z,14.60
2018-05-01T08:53:21.624Z,14.70
2018-05-01T08:55:48.787Z,14.40
2018-05-01T08:58:15.927Z,14.10
2018-05-01T09:00:43.103Z,14.00
2018-05-01T09:03:10.240Z,13.80
2018-05-01T09:05:37.352Z,13.80
2018-05-01T09:08:04.509Z,13.80
2018-05-01T09:10:31.758Z,13.80
2018-05-01T09:12:58.863Z,14.10
2018-05-01T09:15:25.983Z,14.10
2018-05-01T09:17:53.280Z,14.40
2018-05-01T09:20:21.150Z,14.50
2018-05-01T09:22:48.335Z,14.50
2018-05-01T09:25:15.482Z,14.60
2018-05-01T09:27:42.658Z,14.70
2018-05-01T09:30:09.828Z,14.60
2018-05-01T09:32:36.964Z,14.30
2018-05-01T09:35:04.105Z,14.30
2018-05-01T09:37:31.227Z,14.50
2018-05-01T09:39:58.375Z,14.60
2018-05-01T09:42:25.518Z,14.60
2018-05-01T09:44:52.690Z,14.50
2018-05-01T09:47:19.878Z,14.70
2018-05-01T09:49:47.033Z,14.60
2018-05-01T09:52:15.663Z,14.80
2018-05-01T09:54:43.347Z,14.80
2018-05-01T09:57:11.018Z,14.80
2018-05-01T09:59:38.687Z,14.90
2018-05-01T10:02:07.065Z,15.10
2018-05-01T10:04:34.693Z,15.10
2018-05-01T10:07:02.398Z,15.30
2018-05-01T10:09:30.025Z,15.30
2018-05-01T10:11:57.812Z,15.20
2018-05-01T10:14:26.147Z,15.40
2018-05-01T10:16:53.821Z,15.20
2018-05-01T10:19:21.428Z,15.30
2018-05-01T10:21:49.791Z,15.30
2018-05-01T10:24:17.457Z,15.30
2018-05-01T10:26:45.091Z,15.20
2018-05-01T10:29:12.748Z,15.20
2018-05-01T10:31:40.406Z,15.30
2018-05-01T10:34:07.993Z,15.40
2018-05-01T10:36:35.716Z,15.40
2018-05-01T10:39:03.391Z,15.60
2018-05-01T10:41:31.020Z,15.80
2018-05-01T10:43:58.822Z,15.80
2018-05-01T10:46:26.432Z,15.90
2018-05-01T10:48:54.007Z,15.90
2018-05-01T10:51:21.691Z,15.80
2018-05-01T10:53:49.314Z,15.80
2018-05-01T10:56:17.017Z,15.90
2018-05-01T10:58:44.680Z,15.80
2018-05-01T11:01:12.305Z,15.90
2018-05-01T11:03:39.955Z,16.00
2018-05-01T11:06:08.377Z,15.90
2018-05-01T11:08:35.999Z,15.80
2018-05-01T11:11:03.628Z,15.90
2018-05-01T11:13:31.273Z,15.60
2018-05-01T11:16:00.717Z,15.80
2018-05-01T11:18:29.090Z,15.90
2018-05-01T11:20:57.498Z,15.80
2018-05-01T11:23:26.031Z,15.80
2018-05-01T11:25:53.712Z,15.90
2018-05-01T11:28:21.312Z,15.90
2018-05-01T11:30:48.897Z,16.00
2018-05-01T11:33:16.507Z,15.90
2018-05-01T11:35:44.125Z,15.90
2018-05-01T11:38:11.777Z,15.80
2018-05-01T11:40:39.386Z,15.90
2018-05-01T11:43:08.396Z,16.00
2018-05-01T11:45:37.117Z,16.00
2018-05-01T11:48:04.737Z,16.20
2018-05-01T11:50:32.927Z,16.30
2018-05-01T11:53:00.565Z,16.50
2018-05-01T11:55:28.257Z,16.60
2018-05-01T11:57:55.885Z,16.70
2018-05-01T12:00:23.883Z,16.80
2018-05-01T12:02:51.473Z,16.90
2018-05-01T12:05:19.096Z,17.10
2018-05-01T12:07:46.712Z,17.10
2018-05-01T12:10:15.074Z,16.90
2018-05-01T12:12:42.688Z,16.90
2018-05-01T12:15:10.337Z,17.00
2018-05-01T12:17:37.979Z,17.20
2018-05-01T12:20:07.126Z,17.80
2018-05-01T12:22:34.877Z,17.60
2018-05-01T12:25:02.484Z,17.90
2018-05-01T12:27:30.892Z,19.00
2018-05-01T12:32:31.585Z,19.20
2018-05-01T12:34:59.429Z,19.20
2018-05-01T12:37:27.026Z,19.10
2018-05-01T12:39:54.621Z,19.40
2018-05-01T12:42:22.931Z,19.60
2018-05-01T12:44:50.507Z,19.80
2018-05-01T12:47:18.129Z,18.50
2018-05-01T12:49:45.735Z,17.80
2018-05-01T12:52:13.345Z,18.00
2018-05-01T12:54:43.434Z,18.50
2018-05-01T12:57:11.814Z,17.90
2018-05-01T12:59:39.400Z,17.90
2018-05-01T13:02:07.108Z,17.30
2018-05-01T13:04:34.733Z,17.30
2018-05-01T13:07:02.392Z,17.60
2018-05-01T13:09:30.028Z,19.10
2018-05-01T13:11:58.375Z,19.70
2018-05-01T13:14:26.345Z,19.70
2018-05-01T13:16:53.952Z,20.10
2018-05-01T13:19:21.561Z,20.20
2018-05-01T13:21:49.180Z,20.40
2018-05-01T13:24:16.877Z,20.30
2018-05-01T13:26:44.488Z,19.60
2018-05-01T13:29:12.074Z,19.60
2018-05-01T13:31:39.684Z,20.70
2018-05-01T13:34:08.043Z,21.60
2018-05-01T13:36:36.037Z,21.60
2018-05-01T13:39:03.723Z,22.30
2018-05-01T13:41:31.371Z,21.80
2018-05-01T13:43:58.953Z,21.30
2018-05-01T13:46:26.570Z,21.60
2018-05-01T13:48:55.023Z,21.30
2018-05-01T13:51:22.661Z,21.30
2018-05-01T13:53:50.246Z,21.10
2018-05-01T13:56:18.696Z,21.70
2018-05-01T13:58:46.285Z,21.70
2018-05-01T14:01:13.928Z,22.00
2018-05-01T14:03:41.579Z,20.20
2018-05-01T14:06:09.273Z,20.40
2018-05-01T14:08:36.974Z,21.20
2018-05-01T14:11:04.745Z,21.50
2018-05-01T14:13:33.159Z,21.00
2018-05-01T14:16:00.779Z,21.00
2018-05-01T14:18:28.414Z,21.00
2018-05-01T14:20:56.882Z,20.40
2018-05-01T14:23:24.500Z,20.40
2018-05-01T14:25:52.682Z,20.70
2018-05-01T14:28:20.314Z,21.50
2018-05-01T14:30:55.113Z,21.90
2018-05-01T14:36:18.367Z,22.60
2018-05-01T14:38:46.005Z,21.80
2018-05-01T14:41:14.197Z,20.80
2018-05-01T14:43:41.900Z,20.40
2018-05-01T14:46:09.619Z,21.30
2018-05-01T14:48:37.228Z,21.60
2018-05-01T14:51:04.838Z,21.00
2018-05-01T14:53:32.438Z,20.70
2018-05-01T14:56:00.922Z,20.90
2018-05-01T14:58:29.325Z,19.40
2018-05-01T15:00:56.991Z,19.30
2018-05-01T15:03:24.631Z,19.70
2018-05-01T15:05:52.319Z,20.50
2018-05-01T15:08:19.987Z,20.40
2018-05-01T15:10:47.665Z,20.90
2018-05-01T15:13:15.279Z,20.70
2018-05-01T15:15:42.920Z,20.10
2018-05-01T15:18:11.577Z,21.00
2018-05-01T15:20:39.184Z,20.90
2018-05-01T15:23:06.926Z,20.60
2018-05-01T15:25:38.839Z,20.90
2018-05-01T15:28:06.452Z,20.90
2018-05-01T15:30:34.891Z,21.40
2018-05-01T15:33:02.530Z,21.40
2018-05-01T15:35:30.127Z,21.50
2018-05-01T15:37:57.773Z,21.40
2018-05-01T15:40:25.495Z,20.80
2018-05-01T15:42:53.118Z,19.20
2018-05-01T15:45:20.704Z,18.20
2018-05-01T15:47:48.425Z,18.60
2018-05-01T15:50:16.910Z,18.90
2018-05-01T15:52:44.533Z,18.80
2018-05-01T15:55:12.255Z,17.60
2018-05-01T15:57:40.628Z,17.10
2018-05-01T16:00:09.047Z,17.10
2018-05-01T16:02:36.662Z,17.10
2018-05-01T16:05:05.067Z,18.50
2018-05-01T16:07:33.836Z,18.50
2018-05-01T16:10:02.234Z,17.70
2018-05-01T16:12:29.927Z,17.60
2018-05-01T16:14:57.553Z,17.20
2018-05-01T16:17:25.247Z,17.00
2018-05-01T16:19:52.905Z,16.90
2018-05-01T16:22:20.517Z,16.80
2018-05-01T16:24:48.867Z,16.50
2018-05-01T16:27:16.489Z,16.50
2018-05-01T16:29:44.457Z,16.30
2018-05-01T16:32:12.804Z,16.20
2018-05-01T16:34:41.181Z,15.90
2018-05-01T16:37:09.610Z,16.00
2018-05-01T16:39:37.807Z,16.00
2018-05-01T16:42:05.453Z,15.90
2018-05-01T16:44:33.047Z,15.80
2018-05-01T16:47:01.444Z,15.60
2018-05-01T16:49:29.054Z,15.50
2018-05-01T16:51:56.705Z,15.50
2018-05-01T16:54:24.345Z,15.40
2018-05-01T16:56:51.987Z,15.30
2018-05-01T16:59:19.636Z,15.20
2018-05-01T17:01:47.900Z,15.20
2018-05-01T17:04:16.330Z,15.10
2018-05-01T17:06:43.970Z,15.10
2018-05-01T17:09:11.590Z,15.10
2018-05-01T17:11:39.479Z,15.00
2018-05-01T17:14:08.467Z,15.00
2018-05-01T17:16:36.886Z,14.90
2018-05-01T17:19:04.670Z,14.90
2018-05-01T17:21:32.764Z,14.90
2018-05-01T17:24:00.508Z,14.80
2018-05-01T17:26:28.134Z,14.80
2018-05-01T17:28:55.782Z,14.70
2018-05-01T17:31:23.407Z,14.70
2018-05-01T17:33:51.999Z,14.70
2018-05-01T17:36:20.414Z,14.60
2018-05-01T17:38:48.074Z,14.60
2018-05-01T17:41:15.675Z,14.60
2018-05-01T17:43:43.326Z,14.60
2018-05-01T17:46:10.927Z,14.50
2018-05-01T17:48:39.338Z,14.40
2018-05-01T17:51:07.167Z,14.40
2018-05-01T17:53:35.654Z,14.30
2018-05-01T17:56:04.065Z,14.30
2018-05-01T17:58:33.220Z,14.30
2018-05-01T18:01:01.634Z,14.20
2018-05-01T18:03:29.345Z,14.20
2018-05-01T18:05:56.986Z,14.20
2018-05-01T18:08:25.342Z,14.10
2018-05-01T18:10:53.011Z,14.10
2018-05-01T18:13:20.677Z,14.00
2018-05-01T18:15:48.323Z,14.00
2018-05-01T18:18:16.012Z,13.90
2018-05-01T18:20:44.334Z,13.90
2018-05-01T18:23:12.711Z,13.80
2018-05-01T18:25:40.339Z,13.80
2018-05-01T18:28:07.926Z,13.80
2018-05-01T18:30:36.387Z,13.70
2018-05-01T18:33:04.037Z,13.70
2018-05-01T18:35:32.416Z,13.70
2018-05-01T18:38:00.049Z,13.60
2018-05-01T18:40:27.783Z,13.60
2018-05-01T18:42:55.393Z,13.60
2018-05-01T18:45:23.066Z,13.50
2018-05-01T18:47:50.792Z,13.50
2018-05-01T18:50:18.436Z,13.50
2018-05-01T18:52:46.094Z,13.50
2018-05-01T18:55:13.706Z,13.40
2018-05-01T18:57:41.360Z,13.40
2018-05-01T19:00:09.718Z,13.30
2018-05-01T19:02:38.075Z,13.30
2018-05-01T19:05:05.703Z,13.30
2018-05-01T19:07:34.114Z,13.20
2018-05-01T19:10:02.638Z,13.20
2018-05-01T19:12:30.439Z,13.10
2018-05-01T19:14:58.108Z,13.10
2018-05-01T19:17:25.757Z,13.00
2018-05-01T19:19:53.453Z,13.00
2018-05-01T19:22:21.112Z,13.00
2018-05-01T19:24:48.823Z,13.00
2018-05-01T19:27:17.309Z,13.00
2018-05-01T19:29:45.686Z,12.90
2018-05-01T19:32:14.508Z,12.90
2018-05-01T19:34:42.990Z,12.90
2018-05-01T19:37:10.627Z,12.90
2018-05-01T19:39:38.348Z,12.80
2018-05-01T19:42:06.691Z,12.90
2018-05-01T19:44:34.298Z,12.80
2018-05-01T19:47:02.034Z,12.80
2018-05-01T19:49:29.650Z,12.70
2018-05-01T19:51:58.043Z,12.80
2018-05-01T19:54:25.660Z,12.70
2018-05-01T19:56:53.299Z,12.70
2018-05-01T19:59:20.884Z,12.70
2018-05-01T20:01:48.526Z,12.60
2018-05-01T20:04:16.216Z,12.60
2018-05-01T20:06:44.617Z,12.40
2018-05-01T20:09:12.263Z,12.40
2018-05-01T20:11:40.707Z,12.30
2018-05-01T20:14:08.360Z,12.30
2018-05-01T20:16:35.982Z,12.20
2018-05-01T20:19:03.650Z,12.30
2018-05-01T20:21:31.252Z,12.20
2018-05-01T20:23:58.846Z,12.20
2018-05-01T20:26:27.919Z,12.10
2018-05-01T20:28:56.321Z,12.10
2018-05-01T20:31:24.670Z,12.10
2018-05-01T20:33:52.308Z,12.10
2018-05-01T20:36:19.889Z,12.00
2018-05-01T20:38:47.571Z,12.00
2018-05-01T20:41:15.998Z,11.90
2018-05-01T20:43:44.553Z,11.90
2018-05-01T20:46:12.207Z,11.90
2018-05-01T20:48:40.551Z,11.90
2018-05-01T20:51:08.930Z,11.90
2018-05-01T20:53:36.545Z,11.80
2018-05-01T20:56:04.198Z,11.90
2018-05-01T20:58:31.940Z,11.90
2018-05-01T21:01:00.259Z,11.90
2018-05-01T21:03:28.008Z,11.80
2018-05-01T21:05:56.237Z,11.80
2018-05-01T21:08:24.571Z,11.80
2018-05-01T21:10:52.771Z,11.80
2018-05-01T21:13:20.554Z,11.80
2018-05-01T21:15:48.279Z,11.70
2018-05-01T21:18:16.102Z,11.70
2018-05-01T21:20:44.506Z,11.60
2018-05-01T21:23:12.128Z,11.60
2018-05-01T21:25:41.389Z,11.50
2018-05-01T21:28:09.015Z,11.40
2018-05-01T21:30:36.797Z,11.60
2018-05-01T21:33:05.155Z,11.60
2018-05-01T21:35:32.849Z,11.60
2018-05-01T21:38:01.276Z,11.50
2018-05-01T21:40:30.292Z,11.40
2018-05-01T21:42:58.633Z,11.40
2018-05-01T21:45:26.985Z,11.40
2018-05-01T21:47:54.648Z,11.40
2018-05-01T21:50:22.592Z,11.40
2018-05-01T21:52:50.210Z,11.40
2018-05-01T21:55:18.828Z,11.40
2018-05-01T21:57:46.470Z,11.30
2018-05-01T22:00:14.157Z,11.30
2018-05-01T22:02:41.780Z,11.30
2018-05-01T22:05:10.151Z,11.20
2018-05-01T22:07:38.525Z,11.20
2018-05-01T22:10:07.031Z,11.20
2018-05-01T22:12:35.353Z,11.10
2018-05-01T22:15:02.974Z,11.10
2018-05-01T22:17:30.579Z,11.10
2018-05-01T22:19:58.732Z,11.00
2018-05-01T22:22:26.381Z,11.00
2018-05-01T22:24:54.007Z,11.10
2018-05-01T22:27:22.355Z,11.20
2018-05-01T22:29:50.817Z,11.20
2018-05-01T22:32:18.692Z,11.20
2018-05-01T22:34:47.119Z,11.20
2018-05-01T22:37:14.737Z,11.10
2018-05-01T22:39:42.443Z,11.10
2018-05-01T22:42:10.060Z,11.10
2018-05-01T22:44:37.740Z,11.00
2018-05-01T22:47:06.179Z,11.00
2018-05-01T22:49:33.796Z,10.90
2018-05-01T22:52:01.432Z,10.90
2018-05-01T22:54:29.809Z,10.90
2018-05-01T22:56:58.244Z,10.90
2018-05-01T22:59:25.825Z,10.80
2018-05-01T23:01:53.470Z,10.80
2018-05-01T23:04:21.103Z,10.80
2018-05-01T23:06:48.729Z,10.80
2018-05-01T23:09:16.461Z,10.70
2018-05-01T23:11:44.082Z,10.70
2018-05-01T23:14:11.705Z,10.70
2018-05-01T23:16:39.291Z,10.70
2018-05-01T23:19:07.653Z,10.60
2018-05-01T23:21:36.051Z,10.60
2018-05-01T23:24:03.705Z,10.60
2018-05-01T23:26:32.051Z,10.60
2018-05-01T23:28:59.769Z,10.60
2018-05-01T23:31:27.443Z,10.50
2018-05-01T23:33:55.068Z,10.50
2018-05-01T23:36:22.710Z,10.50
2018-05-01T23:38:51.138Z,10.40
2018-05-01T23:41:18.799Z,10.30
2018-05-01T23:43:46.384Z,10.40
2018-05-01T23:46:14.018Z,10.40
2018-05-01T23:48:41.595Z,10.30
2018-05-01T23:51:09.810Z,10.30
2018-05-01T23:53:38.345Z,10.30
2018-05-01T23:56:05.996Z,10.20
2018-05-01T23:58:34.301Z,10.20
